sensor_id;sensor_type;location;lat;lon;timestamp;P1;durP1;ratioP1;P2;durP2;ratioP2
59998;SDS011;45859;51.378;6.736;2022-08-21T00:02:17;8.73;;;4.83;;
59998;SDS011;45859;51.378;6.736;2022-08-21T00:04:45;6.73;;;5.53;;
59998;SDS011;45859;51.378;6.736;2022-08-21T00:07:11;8.47;;;5.43;;
59998;SDS011;45859;51.378;6.736;2022-08-21T00:09:37;7.97;;;5.40;;
59998;SDS011;45859;51.378;6.736;2022-08-21T00:12:04;7.63;;;5.75;;
59998;SDS011;45859;51.378;6.736;2022-08-21T00:14:31;9.25;;;5.32;;
59998;SDS011;45859;51.378;6.736;2022-08-21T00:16:57;8.57;;;5.77;;
59998;SDS011;45859;51.378;6.736;2022-08-21T00:19:24;7.80;;;5.27;;
59998;SDS011;45859;51.378;6.736;2022-08-21T00:21:53;7.47;;;5.57;;
59998;SDS011;45859;51.378;6.736;2022-08-21T00:24:20;7.57;;;5.32;;
59998;SDS011;45859;51.378;6.736;2022-08-21T00:26:47;6.53;;;5.35;;
59998;SDS011;45859;51.378;6.736;2022-08-21T00:29:14;8.23;;;5.68;;
59998;SDS011;45859;51.378;6.736;2022-08-21T00:31:40;7.00;;;5.67;;
59998;SDS011;45859;51.378;6.736;2022-08-21T00:34:07;10.80;;;6.23;;
59998;SDS011;45859;51.378;6.736;2022-08-21T00:36:33;13.47;;;6.60;;
59998;SDS011;45859;51.378;6.736;2022-08-21T00:39:00;11.20;;;6.30;;
59998;SDS011;45859;51.378;6.736;2022-08-21T00:41:27;7.67;;;6.47;;
59998;SDS011;45859;51.378;6.736;2022-08-21T00:43:53;9.00;;;6.30;;
59998;SDS011;45859;51.378;6.736;2022-08-21T00:46:20;10.13;;;6.30;;
59998;SDS011;45859;51.378;6.736;2022-08-21T00:48:45;9.70;;;6.90;;
59998;SDS011;45859;51.378;6.736;2022-08-21T00:51:13;12.93;;;7.90;;
59998;SDS011;45859;51.378;6.736;2022-08-21T00:53:48;10.93;;;7.07;;
59998;SDS011;45859;51.378;6.736;2022-08-21T00:56:17;8.97;;;7.20;;
59998;SDS011;45859;51.378;6.736;2022-08-21T00:58:46;8.47;;;7.17;;
59998;SDS011;45859;51.378;6.736;2022-08-21T01:01:13;9.37;;;7.23;;
59998;SDS011;45859;51.378;6.736;2022-08-21T01:03:39;10.77;;;7.57;;
59998;SDS011;45859;51.378;6.736;2022-08-21T01:06:05;9.37;;;7.20;;
59998;SDS011;45859;51.378;6.736;2022-08-21T01:08:32;10.50;;;7.77;;
59998;SDS011;45859;51.378;6.736;2022-08-21T01:10:59;14.77;;;7.87;;
59998;SDS011;45859;51.378;6.736;2022-08-21T01:13:26;10.37;;;7.73;;
59998;SDS011;45859;51.378;6.736;2022-08-21T01:15:55;10.87;;;8.17;;
59998;SDS011;45859;51.378;6.736;2022-08-21T01:18:24;12.77;;;8.23;;
59998;SDS011;45859;51.378;6.736;2022-08-21T01:21:07;9.60;;;7.47;;
59998;SDS011;45859;51.378;6.736;2022-08-21T01:23:43;10.53;;;8.00;;
59998;SDS011;45859;51.378;6.736;2022-08-21T01:26:13;11.50;;;8.13;;
59998;SDS011;45859;51.378;6.736;2022-08-21T01:28:49;9.83;;;7.87;;
59998;SDS011;45859;51.378;6.736;2022-08-21T01:31:22;12.82;;;8.20;;
59998;SDS011;45859;51.378;6.736;2022-08-21T01:33:49;11.30;;;9.00;;
59998;SDS011;45859;51.378;6.736;2022-08-21T01:36:15;11.40;;;8.77;;
59998;SDS011;45859;51.378;6.736;2022-08-21T01:38:41;12.43;;;8.97;;
59998;SDS011;45859;51.378;6.736;2022-08-21T01:41:07;10.63;;;8.67;;
59998;SDS011;45859;51.378;6.736;2022-08-21T01:43:33;10.70;;;8.90;;
59998;SDS011;45859;51.378;6.736;2022-08-21T01:45:58;12.87;;;8.90;;
59998;SDS011;45859;51.378;6.736;2022-08-21T01:48:24;9.63;;;8.37;;
59998;SDS011;45859;51.378;6.736;2022-08-21T01:50:50;12.50;;;8.63;;
59998;SDS011;45859;51.378;6.736;2022-08-21T01:53:16;10.93;;;8.53;;
59998;SDS011;45859;51.378;6.736;2022-08-21T01:55:42;10.83;;;8.90;;
59998;SDS011;45859;51.378;6.736;2022-08-21T01:58:09;9.73;;;8.73;;
59998;SDS011;45859;51.378;6.736;2022-08-21T02:00:34;11.57;;;9.30;;
59998;SDS011;45859;51.378;6.736;2022-08-21T02:03:00;10.87;;;9.03;;
59998;SDS011;45859;51.378;6.736;2022-08-21T02:05:27;12.30;;;9.43;;
59998;SDS011;45859;51.378;6.736;2022-08-21T02:07:53;12.40;;;9.47;;
59998;SDS011;45859;51.378;6.736;2022-08-21T02:10:22;12.10;;;9.30;;
59998;SDS011;45859;51.378;6.736;2022-08-21T02:12:51;12.43;;;9.17;;
59998;SDS011;45859;51.378;6.736;2022-08-21T02:15:17;12.83;;;9.87;;
59998;SDS011;45859;51.378;6.736;2022-08-21T02:17:48;10.33;;;9.33;;
59998;SDS011;45859;51.378;6.736;2022-08-21T02:20:18;11.63;;;10.00;;
59998;SDS011;45859;51.378;6.736;2022-08-21T02:22:46;11.73;;;9.60;;
59998;SDS011;45859;51.378;6.736;2022-08-21T02:25:12;11.13;;;9.93;;
59998;SDS011;45859;51.378;6.736;2022-08-21T02:27:42;11.83;;;9.83;;
59998;SDS011;45859;51.378;6.736;2022-08-21T02:30:11;12.57;;;10.80;;
59998;SDS011;45859;51.378;6.736;2022-08-21T02:32:40;13.00;;;10.97;;
59998;SDS011;45859;51.378;6.736;2022-08-21T02:35:07;14.83;;;10.03;;
59998;SDS011;45859;51.378;6.736;2022-08-21T02:37:34;13.03;;;11.20;;
59998;SDS011;45859;51.378;6.736;2022-08-21T02:40:07;12.60;;;11.10;;
59998;SDS011;45859;51.378;6.736;2022-08-21T02:42:36;13.77;;;10.83;;
59998;SDS011;45859;51.378;6.736;2022-08-21T02:45:02;14.30;;;11.70;;
59998;SDS011;45859;51.378;6.736;2022-08-21T02:47:29;13.80;;;11.20;;
59998;SDS011;45859;51.378;6.736;2022-08-21T02:49:54;13.03;;;11.27;;
59998;SDS011;45859;51.378;6.736;2022-08-21T02:52:20;15.80;;;11.57;;
59998;SDS011;45859;51.378;6.736;2022-08-21T02:54:46;15.37;;;12.27;;
59998;SDS011;45859;51.378;6.736;2022-08-21T02:57:12;13.80;;;12.40;;
59998;SDS011;45859;51.378;6.736;2022-08-21T02:59:38;16.23;;;13.17;;
59998;SDS011;45859;51.378;6.736;2022-08-21T03:02:05;15.57;;;12.97;;
59998;SDS011;45859;51.378;6.736;2022-08-21T03:04:32;14.77;;;12.80;;
59998;SDS011;45859;51.378;6.736;2022-08-21T03:06:57;15.10;;;13.23;;
59998;SDS011;45859;51.378;6.736;2022-08-21T03:09:23;14.90;;;13.43;;
59998;SDS011;45859;51.378;6.736;2022-08-21T03:11:49;14.60;;;12.93;;
59998;SDS011;45859;51.378;6.736;2022-08-21T03:14:16;18.33;;;13.60;;
59998;SDS011;45859;51.378;6.736;2022-08-21T03:16:43;15.30;;;13.27;;
59998;SDS011;45859;51.378;6.736;2022-08-21T03:19:09;15.03;;;13.03;;
59998;SDS011;45859;51.378;6.736;2022-08-21T03:21:35;15.33;;;12.63;;
59998;SDS011;45859;51.378;6.736;2022-08-21T03:24:01;14.30;;;12.80;;
59998;SDS011;45859;51.378;6.736;2022-08-21T03:26:27;14.50;;;13.03;;
59998;SDS011;45859;51.378;6.736;2022-08-21T03:28:53;14.37;;;12.87;;
59998;SDS011;45859;51.378;6.736;2022-08-21T03:31:19;14.10;;;12.10;;
59998;SDS011;45859;51.378;6.736;2022-08-21T03:33:46;13.30;;;11.97;;
59998;SDS011;45859;51.378;6.736;2022-08-21T03:36:12;14.27;;;11.67;;
59998;SDS011;45859;51.378;6.736;2022-08-21T03:38:37;17.93;;;12.10;;
59998;SDS011;45859;51.378;6.736;2022-08-21T03:41:04;14.67;;;12.17;;
59998;SDS011;45859;51.378;6.736;2022-08-21T03:43:30;14.63;;;13.33;;
59998;SDS011;45859;51.378;6.736;2022-08-21T03:45:57;14.43;;;12.90;;
59998;SDS011;45859;51.378;6.736;2022-08-21T03:48:23;13.93;;;12.53;;
59998;SDS011;45859;51.378;6.736;2022-08-21T03:50:51;14.37;;;12.20;;
59998;SDS011;45859;51.378;6.736;2022-08-21T03:53:17;14.47;;;12.97;;
59998;SDS011;45859;51.378;6.736;2022-08-21T03:55:44;14.43;;;12.73;;
59998;SDS011;45859;51.378;6.736;2022-08-21T03:58:11;16.40;;;12.50;;
59998;SDS011;45859;51.378;6.736;2022-08-21T04:00:37;14.73;;;12.30;;
59998;SDS011;45859;51.378;6.736;2022-08-21T04:03:03;20.40;;;13.20;;
59998;SDS011;45859;51.378;6.736;2022-08-21T04:05:32;15.83;;;14.17;;
59998;SDS011;45859;51.378;6.736;2022-08-21T04:07:59;14.40;;;12.90;;
59998;SDS011;45859;51.378;6.736;2022-08-21T04:10:28;19.03;;;14.87;;
59998;SDS011;45859;51.378;6.736;2022-08-21T04:12:55;18.20;;;14.60;;
59998;SDS011;45859;51.378;6.736;2022-08-21T04:15:23;16.83;;;13.93;;
59998;SDS011;45859;51.378;6.736;2022-08-21T04:17:50;20.10;;;16.23;;
59998;SDS011;45859;51.378;6.736;2022-08-21T04:20:16;18.13;;;15.83;;
59998;SDS011;45859;51.378;6.736;2022-08-21T04:22:43;18.03;;;16.13;;
59998;SDS011;45859;51.378;6.736;2022-08-21T04:25:09;24.80;;;17.03;;
59998;SDS011;45859;51.378;6.736;2022-08-21T04:27:36;16.07;;;8.30;;
59998;SDS011;45859;51.378;6.736;2022-08-21T04:30:03;19.57;;;15.50;;
59998;SDS011;45859;51.378;6.736;2022-08-21T04:32:29;17.67;;;15.70;;
59998;SDS011;45859;51.378;6.736;2022-08-21T04:35:03;19.00;;;15.60;;
59998;SDS011;45859;51.378;6.736;2022-08-21T04:37:33;19.50;;;15.70;;
59998;SDS011;45859;51.378;6.736;2022-08-21T04:39:59;19.80;;;15.67;;
59998;SDS011;45859;51.378;6.736;2022-08-21T04:42:26;18.93;;;16.80;;
59998;SDS011;45859;51.378;6.736;2022-08-21T04:44:53;21.27;;;17.33;;
59998;SDS011;45859;51.378;6.736;2022-08-21T04:47:20;14.53;;;9.10;;
59998;SDS011;45859;51.378;6.736;2022-08-21T04:49:45;18.93;;;16.87;;
59998;SDS011;45859;51.378;6.736;2022-08-21T04:52:12;19.27;;;17.17;;
59998;SDS011;45859;51.378;6.736;2022-08-21T04:54:41;20.07;;;17.97;;
59998;SDS011;45859;51.378;6.736;2022-08-21T04:57:08;21.00;;;18.10;;
59998;SDS011;45859;51.378;6.736;2022-08-21T04:59:37;23.70;;;19.33;;
59998;SDS011;45859;51.378;6.736;2022-08-21T05:02:06;17.85;;;10.23;;
59998;SDS011;45859;51.378;6.736;2022-08-21T05:04:34;19.30;;;17.40;;
59998;SDS011;45859;51.378;6.736;2022-08-21T05:07:07;20.23;;;18.17;;
59998;SDS011;45859;51.378;6.736;2022-08-21T05:09:38;21.53;;;18.63;;
59998;SDS011;45859;51.378;6.736;2022-08-21T05:12:04;24.27;;;18.27;;
59998;SDS011;45859;51.378;6.736;2022-08-21T05:14:30;19.93;;;17.80;;
59998;SDS011;45859;51.378;6.736;2022-08-21T05:16:56;19.17;;;16.77;;
59998;SDS011;45859;51.378;6.736;2022-08-21T05:19:21;21.53;;;17.93;;
59998;SDS011;45859;51.378;6.736;2022-08-21T05:21:48;20.87;;;17.03;;
59998;SDS011;45859;51.378;6.736;2022-08-21T05:24:14;21.90;;;18.40;;
59998;SDS011;45859;51.378;6.736;2022-08-21T05:26:40;20.40;;;18.33;;
59998;SDS011;45859;51.378;6.736;2022-08-21T05:29:07;20.57;;;17.30;;
59998;SDS011;45859;51.378;6.736;2022-08-21T05:31:33;20.03;;;16.50;;
59998;SDS011;45859;51.378;6.736;2022-08-21T05:33:58;18.67;;;16.70;;
59998;SDS011;45859;51.378;6.736;2022-08-21T05:36:24;17.80;;;15.00;;
59998;SDS011;45859;51.378;6.736;2022-08-21T05:38:50;20.03;;;15.80;;
59998;SDS011;45859;51.378;6.736;2022-08-21T05:41:16;18.57;;;14.93;;
59998;SDS011;45859;51.378;6.736;2022-08-21T05:43:42;17.90;;;14.87;;
59998;SDS011;45859;51.378;6.736;2022-08-21T05:46:07;15.97;;;14.27;;
59998;SDS011;45859;51.378;6.736;2022-08-21T05:48:34;17.77;;;13.33;;
59998;SDS011;45859;51.378;6.736;2022-08-21T05:51:05;13.17;;;11.60;;
59998;SDS011;45859;51.378;6.736;2022-08-21T05:53:33;14.00;;;11.50;;
59998;SDS011;45859;51.378;6.736;2022-08-21T05:56:00;15.60;;;10.23;;
59998;SDS011;45859;51.378;6.736;2022-08-21T05:58:28;12.53;;;9.00;;
59998;SDS011;45859;51.378;6.736;2022-08-21T06:00:55;11.97;;;7.70;;
59998;SDS011;45859;51.378;6.736;2022-08-21T06:03:32;11.73;;;8.20;;
59998;SDS011;45859;51.378;6.736;2022-08-21T06:05:59;13.52;;;7.35;;
59998;SDS011;45859;51.378;6.736;2022-08-21T06:08:26;9.05;;;6.45;;
59998;SDS011;45859;51.378;6.736;2022-08-21T06:10:52;9.23;;;6.07;;
59998;SDS011;45859;51.378;6.736;2022-08-21T06:13:20;8.05;;;6.68;;
59998;SDS011;45859;51.378;6.736;2022-08-21T06:15:47;10.60;;;5.63;;
59998;SDS011;45859;51.378;6.736;2022-08-21T06:18:13;10.02;;;5.40;;
59998;SDS011;45859;51.378;6.736;2022-08-21T06:20:39;9.57;;;5.20;;
59998;SDS011;45859;51.378;6.736;2022-08-21T06:23:06;7.57;;;5.30;;
59998;SDS011;45859;51.378;6.736;2022-08-21T06:25:32;8.60;;;4.38;;
59998;SDS011;45859;51.378;6.736;2022-08-21T06:28:02;8.05;;;4.78;;
59998;SDS011;45859;51.378;6.736;2022-08-21T06:30:29;9.98;;;5.32;;
59998;SDS011;45859;51.378;6.736;2022-08-21T06:32:55;9.13;;;5.00;;
59998;SDS011;45859;51.378;6.736;2022-08-21T06:35:20;7.47;;;4.43;;
59998;SDS011;45859;51.378;6.736;2022-08-21T06:37:46;9.75;;;5.22;;
59998;SDS011;45859;51.378;6.736;2022-08-21T06:40:12;8.60;;;4.90;;
59998;SDS011;45859;51.378;6.736;2022-08-21T06:42:38;10.05;;;5.18;;
59998;SDS011;45859;51.378;6.736;2022-08-21T06:45:04;8.27;;;4.63;;
59998;SDS011;45859;51.378;6.736;2022-08-21T06:47:30;7.30;;;4.30;;
59998;SDS011;45859;51.378;6.736;2022-08-21T06:49:56;6.97;;;4.20;;
59998;SDS011;45859;51.378;6.736;2022-08-21T06:52:21;10.88;;;4.70;;
59998;SDS011;45859;51.378;6.736;2022-08-21T06:54:47;10.63;;;4.90;;
59998;SDS011;45859;51.378;6.736;2022-08-21T06:57:13;8.63;;;4.50;;
59998;SDS011;45859;51.378;6.736;2022-08-21T06:59:39;7.47;;;4.47;;
59998;SDS011;45859;51.378;6.736;2022-08-21T07:02:04;8.25;;;4.10;;
59998;SDS011;45859;51.378;6.736;2022-08-21T07:04:30;9.30;;;4.18;;
59998;SDS011;45859;51.378;6.736;2022-08-21T07:06:56;6.25;;;4.35;;
59998;SDS011;45859;51.378;6.736;2022-08-21T07:09:21;8.52;;;4.28;;
59998;SDS011;45859;51.378;6.736;2022-08-21T07:11:48;7.03;;;4.22;;
59998;SDS011;45859;51.378;6.736;2022-08-21T07:14:17;4.65;;;3.17;;
59998;SDS011;45859;51.378;6.736;2022-08-21T07:16:42;6.82;;;3.40;;
59998;SDS011;45859;51.378;6.736;2022-08-21T07:19:08;8.18;;;3.40;;
59998;SDS011;45859;51.378;6.736;2022-08-21T07:21:34;6.78;;;3.00;;
59998;SDS011;45859;51.378;6.736;2022-08-21T07:24:00;3.75;;;2.50;;
59998;SDS011;45859;51.378;6.736;2022-08-21T07:26:25;6.97;;;2.88;;
59998;SDS011;45859;51.378;6.736;2022-08-21T07:28:51;7.32;;;3.15;;
59998;SDS011;45859;51.378;6.736;2022-08-21T07:31:18;5.18;;;2.60;;
59998;SDS011;45859;51.378;6.736;2022-08-21T07:33:45;9.25;;;3.20;;
59998;SDS011;45859;51.378;6.736;2022-08-21T07:36:11;3.63;;;2.30;;
59998;SDS011;45859;51.378;6.736;2022-08-21T07:38:38;7.18;;;2.50;;
59998;SDS011;45859;51.378;6.736;2022-08-21T07:41:07;4.68;;;2.50;;
59998;SDS011;45859;51.378;6.736;2022-08-21T07:43:39;6.82;;;2.55;;
59998;SDS011;45859;51.378;6.736;2022-08-21T07:46:05;4.68;;;2.33;;
59998;SDS011;45859;51.378;6.736;2022-08-21T07:48:30;5.70;;;2.05;;
59998;SDS011;45859;51.378;6.736;2022-08-21T07:50:56;5.18;;;2.10;;
59998;SDS011;45859;51.378;6.736;2022-08-21T07:53:23;4.97;;;2.10;;
59998;SDS011;45859;51.378;6.736;2022-08-21T07:55:49;2.97;;;1.10;;
59998;SDS011;45859;51.378;6.736;2022-08-21T07:58:15;3.97;;;1.00;;
59998;SDS011;45859;51.378;6.736;2022-08-21T08:00:41;4.70;;;1.25;;
59998;SDS011;45859;51.378;6.736;2022-08-21T08:03:06;5.68;;;1.48;;
59998;SDS011;45859;51.378;6.736;2022-08-21T08:05:33;3.85;;;1.38;;
59998;SDS011;45859;51.378;6.736;2022-08-21T08:08:02;5.70;;;1.60;;
59998;SDS011;45859;51.378;6.736;2022-08-21T08:10:28;3.80;;;1.08;;
59998;SDS011;45859;51.378;6.736;2022-08-21T08:12:54;3.53;;;0.88;;
59998;SDS011;45859;51.378;6.736;2022-08-21T08:15:21;2.55;;;1.05;;
59998;SDS011;45859;51.378;6.736;2022-08-21T08:17:49;2.58;;;1.00;;
59998;SDS011;45859;51.378;6.736;2022-08-21T08:20:15;4.95;;;1.42;;
59998;SDS011;45859;51.378;6.736;2022-08-21T08:22:43;4.82;;;1.55;;
59998;SDS011;45859;51.378;6.736;2022-08-21T08:25:10;3.08;;;1.23;;
59998;SDS011;45859;51.378;6.736;2022-08-21T08:27:37;1.67;;;1.00;;
59998;SDS011;45859;51.378;6.736;2022-08-21T08:30:04;2.00;;;0.90;;
59998;SDS011;45859;51.378;6.736;2022-08-21T08:32:31;2.58;;;1.15;;
59998;SDS011;45859;51.378;6.736;2022-08-21T08:34:57;3.38;;;1.25;;
59998;SDS011;45859;51.378;6.736;2022-08-21T08:37:23;3.67;;;1.92;;
59998;SDS011;45859;51.378;6.736;2022-08-21T08:39:48;7.72;;;4.80;;
59998;SDS011;45859;51.378;6.736;2022-08-21T08:42:23;7.85;;;3.35;;
59998;SDS011;45859;51.378;6.736;2022-08-21T08:45:00;8.00;;;3.17;;
59998;SDS011;45859;51.378;6.736;2022-08-21T08:47:27;5.05;;;1.73;;
59998;SDS011;45859;51.378;6.736;2022-08-21T08:52:31;4.40;;;1.23;;
59998;SDS011;45859;51.378;6.736;2022-08-21T08:55:04;3.45;;;1.40;;
59998;SDS011;45859;51.378;6.736;2022-08-21T08:57:35;6.28;;;1.95;;
59998;SDS011;45859;51.378;6.736;2022-08-21T09:00:06;2.92;;;1.38;;
59998;SDS011;45859;51.378;6.736;2022-08-21T09:02:41;2.92;;;1.23;;
59998;SDS011;45859;51.378;6.736;2022-08-21T09:05:21;5.45;;;1.60;;
59998;SDS011;45859;51.378;6.736;2022-08-21T09:10:43;5.32;;;1.50;;
59998;SDS011;45859;51.378;6.736;2022-08-21T09:24:34;3.67;;;1.33;;
59998;SDS011;45859;51.378;6.736;2022-08-21T09:27:15;4.50;;;1.00;;
59998;SDS011;45859;51.378;6.736;2022-08-21T09:29:46;5.40;;;1.38;;
59998;SDS011;45859;51.378;6.736;2022-08-21T09:34:54;3.45;;;1.00;;
59998;SDS011;45859;51.378;6.736;2022-08-21T09:37:20;4.40;;;1.10;;
59998;SDS011;45859;51.378;6.736;2022-08-21T09:39:45;3.17;;;1.38;;
59998;SDS011;45859;51.378;6.736;2022-08-21T09:42:11;5.43;;;1.20;;
59998;SDS011;45859;51.378;6.736;2022-08-21T09:45:04;3.15;;;1.48;;
59998;SDS011;45859;51.378;6.736;2022-08-21T09:47:42;4.13;;;1.20;;
59998;SDS011;45859;51.378;6.736;2022-08-21T09:50:15;3.13;;;1.58;;
59998;SDS011;45859;51.378;6.736;2022-08-21T09:52:51;4.20;;;1.05;;
59998;SDS011;45859;51.378;6.736;2022-08-21T09:55:30;2.30;;;1.05;;
59998;SDS011;45859;51.378;6.736;2022-08-21T09:58:29;3.47;;;1.90;;
59998;SDS011;45859;51.378;6.736;2022-08-21T10:00:59;5.80;;;2.15;;
59998;SDS011;45859;51.378;6.736;2022-08-21T10:03:26;5.95;;;3.25;;
59998;SDS011;45859;51.378;6.736;2022-08-21T10:08:27;8.48;;;4.50;;
59998;SDS011;45859;51.378;6.736;2022-08-21T10:11:01;5.97;;;2.38;;
59998;SDS011;45859;51.378;6.736;2022-08-21T10:25:26;2.55;;;0.90;;
59998;SDS011;45859;51.378;6.736;2022-08-21T10:33:17;3.20;;;1.58;;
59998;SDS011;45859;51.378;6.736;2022-08-21T10:38:49;2.95;;;1.60;;
59998;SDS011;45859;51.378;6.736;2022-08-21T10:54:57;1.95;;;0.90;;
59998;SDS011;45859;51.378;6.736;2022-08-21T11:00:19;3.00;;;1.13;;
59998;SDS011;45859;51.378;6.736;2022-08-21T11:05:38;3.35;;;1.40;;
59998;SDS011;45859;51.378;6.736;2022-08-21T11:08:14;3.20;;;1.30;;
59998;SDS011;45859;51.378;6.736;2022-08-21T11:10:46;3.90;;;1.60;;
59998;SDS011;45859;51.378;6.736;2022-08-21T11:13:27;5.00;;;1.95;;
59998;SDS011;45859;51.378;6.736;2022-08-21T11:16:09;2.45;;;1.10;;
59998;SDS011;45859;51.378;6.736;2022-08-21T11:18:46;4.15;;;0.98;;
59998;SDS011;45859;51.378;6.736;2022-08-21T11:24:29;3.78;;;0.90;;
59998;SDS011;45859;51.378;6.736;2022-08-21T11:27:07;2.70;;;0.95;;
59998;SDS011;45859;51.378;6.736;2022-08-21T11:29:40;3.80;;;1.10;;
59998;SDS011;45859;51.378;6.736;2022-08-21T11:37:33;2.25;;;0.77;;
59998;SDS011;45859;51.378;6.736;2022-08-21T11:40:41;1.50;;;0.80;;
59998;SDS011;45859;51.378;6.736;2022-08-21T11:45:56;1.83;;;0.95;;
59998;SDS011;45859;51.378;6.736;2022-08-21T11:51:35;3.25;;;0.77;;
59998;SDS011;45859;51.378;6.736;2022-08-21T11:55:06;2.42;;;0.80;;
59998;SDS011;45859;51.378;6.736;2022-08-21T11:57:05;6.45;;;1.55;;
59998;SDS011;45859;51.378;6.736;2022-08-21T12:02:07;2.88;;;1.02;;
59998;SDS011;45859;51.378;6.736;2022-08-21T12:04:42;5.95;;;2.35;;
59998;SDS011;45859;51.378;6.736;2022-08-21T12:07:17;4.20;;;1.90;;
59998;SDS011;45859;51.378;6.736;2022-08-21T12:09:55;5.07;;;1.70;;
59998;SDS011;45859;51.378;6.736;2022-08-21T12:12:27;3.25;;;1.40;;
59998;SDS011;45859;51.378;6.736;2022-08-21T12:25:47;3.08;;;0.98;;
59998;SDS011;45859;51.378;6.736;2022-08-21T12:28:38;1.25;;;0.73;;
59998;SDS011;45859;51.378;6.736;2022-08-21T12:31:05;1.63;;;0.93;;
59998;SDS011;45859;51.378;6.736;2022-08-21T12:33:47;2.38;;;0.80;;
59998;SDS011;45859;51.378;6.736;2022-08-21T12:36:19;3.80;;;1.10;;
59998;SDS011;45859;51.378;6.736;2022-08-21T12:41:30;3.60;;;1.42;;
59998;SDS011;45859;51.378;6.736;2022-08-21T12:44:04;3.17;;;1.10;;
59998;SDS011;45859;51.378;6.736;2022-08-21T12:46:37;3.38;;;0.95;;
59998;SDS011;45859;51.378;6.736;2022-08-21T12:49:16;1.65;;;0.85;;
59998;SDS011;45859;51.378;6.736;2022-08-21T12:51:50;3.88;;;1.10;;
59998;SDS011;45859;51.378;6.736;2022-08-21T12:54:28;3.13;;;0.75;;
59998;SDS011;45859;51.378;6.736;2022-08-21T12:57:01;2.20;;;0.63;;
59998;SDS011;45859;51.378;6.736;2022-08-21T12:59:29;1.73;;;0.80;;
59998;SDS011;45859;51.378;6.736;2022-08-21T13:01:59;2.22;;;0.90;;
59998;SDS011;45859;51.378;6.736;2022-08-21T13:04:38;5.45;;;0.82;;
59998;SDS011;45859;51.378;6.736;2022-08-21T13:07:07;2.60;;;0.80;;
59998;SDS011;45859;51.378;6.736;2022-08-21T13:09:38;3.97;;;0.73;;
59998;SDS011;45859;51.378;6.736;2022-08-21T13:12:11;1.77;;;0.77;;
59998;SDS011;45859;51.378;6.736;2022-08-21T13:14:39;1.33;;;0.70;;
59998;SDS011;45859;51.378;6.736;2022-08-21T13:17:07;2.83;;;0.95;;
59998;SDS011;45859;51.378;6.736;2022-08-21T13:19:35;2.70;;;0.85;;
59998;SDS011;45859;51.378;6.736;2022-08-21T13:22:01;3.83;;;1.00;;
59998;SDS011;45859;51.378;6.736;2022-08-21T13:24:34;1.85;;;0.73;;
59998;SDS011;45859;51.378;6.736;2022-08-21T13:27:02;2.65;;;0.80;;
59998;SDS011;45859;51.378;6.736;2022-08-21T13:29:33;1.55;;;0.60;;
59998;SDS011;45859;51.378;6.736;2022-08-21T13:32:02;2.28;;;0.63;;
59998;SDS011;45859;51.378;6.736;2022-08-21T13:34:35;2.38;;;0.80;;
59998;SDS011;45859;51.378;6.736;2022-08-21T13:37:07;1.52;;;0.70;;
59998;SDS011;45859;51.378;6.736;2022-08-21T13:39:36;2.15;;;0.68;;
59998;SDS011;45859;51.378;6.736;2022-08-21T13:42:03;3.33;;;0.70;;
59998;SDS011;45859;51.378;6.736;2022-08-21T13:44:36;1.33;;;0.80;;
59998;SDS011;45859;51.378;6.736;2022-08-21T13:47:07;3.88;;;0.90;;
59998;SDS011;45859;51.378;6.736;2022-08-21T13:49:37;1.50;;;0.60;;
59998;SDS011;45859;51.378;6.736;2022-08-21T13:52:16;2.63;;;0.80;;
59998;SDS011;45859;51.378;6.736;2022-08-21T13:54:51;2.17;;;1.00;;
59998;SDS011;45859;51.378;6.736;2022-08-21T14:00:08;1.67;;;0.70;;
59998;SDS011;45859;51.378;6.736;2022-08-21T14:02:44;2.87;;;0.80;;
59998;SDS011;45859;51.378;6.736;2022-08-21T14:05:21;1.77;;;0.77;;
59998;SDS011;45859;51.378;6.736;2022-08-21T14:07:51;2.47;;;0.77;;
59998;SDS011;45859;51.378;6.736;2022-08-21T14:10:25;1.42;;;0.70;;
59998;SDS011;45859;51.378;6.736;2022-08-21T14:15:26;1.95;;;0.70;;
59998;SDS011;45859;51.378;6.736;2022-08-21T14:17:54;1.85;;;0.70;;
59998;SDS011;45859;51.378;6.736;2022-08-21T14:20:43;2.60;;;0.65;;
59998;SDS011;45859;51.378;6.736;2022-08-21T14:23:10;2.08;;;0.73;;
59998;SDS011;45859;51.378;6.736;2022-08-21T14:25:44;1.13;;;0.52;;
59998;SDS011;45859;51.378;6.736;2022-08-21T14:28:23;5.47;;;1.77;;
59998;SDS011;45859;51.378;6.736;2022-08-21T14:30:56;2.80;;;0.85;;
59998;SDS011;45859;51.378;6.736;2022-08-21T14:33:30;3.35;;;1.10;;
59998;SDS011;45859;51.378;6.736;2022-08-21T14:35:57;3.08;;;0.98;;
59998;SDS011;45859;51.378;6.736;2022-08-21T14:38:25;2.72;;;1.20;;
59998;SDS011;45859;51.378;6.736;2022-08-21T14:40:53;2.25;;;0.90;;
59998;SDS011;45859;51.378;6.736;2022-08-21T14:43:22;2.72;;;0.75;;
59998;SDS011;45859;51.378;6.736;2022-08-21T14:45:50;3.58;;;0.90;;
59998;SDS011;45859;51.378;6.736;2022-08-21T14:48:16;4.65;;;1.20;;
59998;SDS011;45859;51.378;6.736;2022-08-21T14:50:41;2.15;;;0.93;;
59998;SDS011;45859;51.378;6.736;2022-08-21T14:53:07;3.45;;;0.77;;
59998;SDS011;45859;51.378;6.736;2022-08-21T14:55:34;2.25;;;0.98;;
59998;SDS011;45859;51.378;6.736;2022-08-21T14:58:19;3.05;;;0.93;;
59998;SDS011;45859;51.378;6.736;2022-08-21T15:00:47;3.17;;;1.00;;
59998;SDS011;45859;51.378;6.736;2022-08-21T15:03:12;4.72;;;1.20;;
59998;SDS011;45859;51.378;6.736;2022-08-21T15:05:38;4.95;;;1.58;;
59998;SDS011;45859;51.378;6.736;2022-08-21T15:08:04;4.03;;;1.02;;
59998;SDS011;45859;51.378;6.736;2022-08-21T15:10:30;3.28;;;1.10;;
59998;SDS011;45859;51.378;6.736;2022-08-21T15:12:59;1.63;;;0.90;;
59998;SDS011;45859;51.378;6.736;2022-08-21T15:15:25;3.38;;;1.00;;
59998;SDS011;45859;51.378;6.736;2022-08-21T15:17:52;3.45;;;1.05;;
59998;SDS011;45859;51.378;6.736;2022-08-21T15:20:17;3.30;;;0.98;;
59998;SDS011;45859;51.378;6.736;2022-08-21T15:22:43;4.75;;;0.70;;
59998;SDS011;45859;51.378;6.736;2022-08-21T15:25:09;5.95;;;1.48;;
59998;SDS011;45859;51.378;6.736;2022-08-21T15:27:35;4.15;;;1.10;;
59998;SDS011;45859;51.378;6.736;2022-08-21T15:30:01;3.53;;;1.08;;
59998;SDS011;45859;51.378;6.736;2022-08-21T15:32:28;1.85;;;0.93;;
59998;SDS011;45859;51.378;6.736;2022-08-21T15:34:55;2.58;;;1.15;;
59998;SDS011;45859;51.378;6.736;2022-08-21T15:37:22;2.80;;;1.00;;
59998;SDS011;45859;51.378;6.736;2022-08-21T15:39:49;3.70;;;1.10;;
59998;SDS011;45859;51.378;6.736;2022-08-21T15:42:15;3.33;;;0.95;;
59998;SDS011;45859;51.378;6.736;2022-08-21T15:44:42;1.63;;;0.63;;
59998;SDS011;45859;51.378;6.736;2022-08-21T15:47:11;3.15;;;1.20;;
59998;SDS011;45859;51.378;6.736;2022-08-21T15:49:42;2.03;;;0.90;;
59998;SDS011;45859;51.378;6.736;2022-08-21T15:52:10;3.65;;;1.20;;
59998;SDS011;45859;51.378;6.736;2022-08-21T15:54:38;3.33;;;1.20;;
59998;SDS011;45859;51.378;6.736;2022-08-21T15:57:03;3.50;;;1.30;;
59998;SDS011;45859;51.378;6.736;2022-08-21T15:59:29;2.65;;;1.10;;
59998;SDS011;45859;51.378;6.736;2022-08-21T16:02:04;2.85;;;0.85;;
59998;SDS011;45859;51.378;6.736;2022-08-21T16:04:32;4.30;;;0.90;;
59998;SDS011;45859;51.378;6.736;2022-08-21T16:06:58;2.78;;;0.90;;
59998;SDS011;45859;51.378;6.736;2022-08-21T16:09:24;2.15;;;0.90;;
59998;SDS011;45859;51.378;6.736;2022-08-21T16:11:50;1.40;;;0.70;;
59998;SDS011;45859;51.378;6.736;2022-08-21T16:14:16;5.03;;;1.13;;
59998;SDS011;45859;51.378;6.736;2022-08-21T16:16:42;4.00;;;0.80;;
59998;SDS011;45859;51.378;6.736;2022-08-21T16:19:10;2.42;;;0.98;;
59998;SDS011;45859;51.378;6.736;2022-08-21T16:21:37;3.05;;;1.25;;
59998;SDS011;45859;51.378;6.736;2022-08-21T16:24:03;4.03;;;1.25;;
59998;SDS011;45859;51.378;6.736;2022-08-21T16:26:29;4.03;;;1.05;;
59998;SDS011;45859;51.378;6.736;2022-08-21T16:28:55;2.60;;;1.13;;